Time;durP1;ratioP1;P1;durP2;ratioP2;P2;SDS_P1;SDS_P2;PMS_P1;PMS_P2;Temp;Humidity;BMP_temperature;BMP_pressure;BME280_temperature;BME280_humidity;BME280_pressure;Samples;Min_cycle;Max_cycle;Signal;HPM_P1;HPM_P2
2022/07/04 00:00:46;;;;;;;5.35;1.10;;;;;;;16.88;69.07;100970.22;5107103;28;20511;-71
2022/07/04 00:03:50;;;;;;;3.60;0.93;;;;;;;16.83;69.63;100961.75;5107889;28;20185;-71
2022/07/04 00:06:54;;;;;;;2.30;0.98;;;;;;;16.86;69.36;100960.72;5106912;28;20109;-71
2022/07/04 00:09:58;;;;;;;4.28;0.90;;;;;;;16.63;69.83;100955.25;5107210;28;20093;-71
2022/07/04 00:13:01;;;;;;;5.63;1.08;;;;;;;16.57;69.94;100960.09;5088849;28;20042;-71
2022/07/04 00:16:05;;;;;;;4.68;0.90;;;;;;;16.50;70.15;100968.47;5089733;28;20110;-71
2022/07/04 00:19:08;;;;;;;5.18;0.77;;;;;;;16.51;70.34;100975.41;5089510;28;20051;-71
2022/07/04 00:22:13;;;;;;;4.10;0.90;;;;;;;16.45;70.65;100975.00;5091320;28;20062;-71
2022/07/04 00:25:17;;;;;;;3.25;0.90;;;;;;;16.45;70.66;100977.63;5098796;28;20058;-71
2022/07/04 00:28:21;;;;;;;2.25;0.88;;;;;;;16.36;70.91;100973.00;5110571;28;20050;-71
2022/07/04 00:31:24;;;;;;;4.80;1.00;;;;;;;16.22;71.44;100966.88;5108968;28;20093;-71
2022/07/04 00:34:28;;;;;;;2.88;1.08;;;;;;;16.31;70.95;100968.06;5110316;28;20104;-71
2022/07/04 00:37:31;;;;;;;7.65;1.27;;;;;;;16.06;71.49;100958.34;5110494;28;20412;-71
2022/07/04 00:40:35;;;;;;;4.15;0.80;;;;;;;16.03;71.90;100958.53;5108897;28;20132;-70
2022/07/04 00:43:39;;;;;;;3.35;1.30;;;;;;;16.00;71.61;100953.47;5110460;28;20046;-71
2022/07/04 00:46:45;;;;;;;3.60;1.35;;;;;;;15.98;71.50;100950.94;5109490;28;20613;-71
2022/07/04 00:49:50;;;;;;;3.55;1.00;;;;;;;16.15;70.66;100948.97;5109267;28;20324;-71
2022/07/04 00:52:54;;;;;;;2.58;0.90;;;;;;;15.98;71.69;100958.84;5110023;28;20141;-71
2022/07/04 00:55:57;;;;;;;4.10;0.73;;;;;;;15.99;71.75;100954.44;5109136;28;20070;-71
2022/07/04 00:59:01;;;;;;;4.35;1.13;;;;;;;15.89;72.19;100964.75;5110227;28;20408;-71
2022/07/04 01:02:04;;;;;;;5.68;1.35;;;;;;;15.81;72.47;100960.00;5110580;28;20043;-71
2022/07/04 01:05:09;;;;;;;3.53;1.00;;;;;;;15.79;72.38;100956.63;5110615;28;20162;-71
2022/07/04 01:08:12;;;;;;;4.22;0.75;;;;;;;15.73;72.27;100964.09;5109796;28;20065;-71
2022/07/04 01:11:16;;;;;;;4.18;1.05;;;;;;;15.76;72.49;100963.88;5109131;28;20042;-71
2022/07/04 01:14:20;;;;;;;2.83;0.70;;;;;;;15.89;71.79;100970.03;5109899;28;20072;-71
2022/07/04 01:17:24;;;;;;;2.70;1.17;;;;;;;15.82;71.37;100968.75;5108775;28;20462;-70
2022/07/04 01:20:33;;;;;;;3.60;0.77;;;;;;;15.68;72.13;100974.09;5109022;28;20582;-70
2022/07/04 01:23:40;;;;;;;4.50;1.10;;;;;;;15.61;72.34;100978.06;5108392;28;20074;-71
2022/07/04 01:26:43;;;;;;;3.42;0.88;;;;;;;15.75;71.85;100978.03;5108409;28;20072;-70
2022/07/04 01:29:47;;;;;;;2.42;1.00;;;;;;;15.69;72.18;100988.97;5109874;28;20043;-70
2022/07/04 01:32:50;;;;;;;2.15;0.80;;;;;;;15.63;72.31;100999.88;5109416;28;20043;-70
2022/07/04 01:35:54;;;;;;;5.30;1.05;;;;;;;15.51;72.62;101002.41;5109115;28;20046;-70
2022/07/04 01:38:58;;;;;;;8.32;1.23;;;;;;;15.48;72.74;101007.88;5108565;28;20111;-71
2022/07/04 01:42:02;;;;;;;6.47;1.77;;;;;;;15.37;72.96;101005.06;5107592;28;20081;-70
2022/07/04 01:45:06;;;;;;;3.58;0.82;;;;;;;15.24;73.22;101007.63;5108373;28;20098;-71
2022/07/04 01:48:11;;;;;;;4.10;1.50;;;;;;;15.23;73.24;101013.03;5108526;28;20511;-71
2022/07/04 01:51:15;;;;;;;4.60;1.60;;;;;;;15.13;73.67;101012.75;5107271;28;20082;-71
2022/07/04 01:54:19;;;;;;;3.92;0.73;;;;;;;15.11;73.63;101015.47;5107854;28;20146;-70
2022/07/04 01:57:22;;;;;;;4.18;1.52;;;;;;;15.15;73.40;101013.50;5108003;28;20050;-70
2022/07/04 02:03:48;;;;;;;2.40;0.98;;;;;;;15.04;73.52;101024.72;5108004;28;20343;-71
2022/07/04 02:06:52;;;;;;;4.10;1.15;;;;;;;14.99;73.78;101025.94;5107153;28;20043;-71
2022/07/04 02:09:55;;;;;;;5.00;1.30;;;;;;;15.00;73.84;101023.22;5108611;28;20119;-71
2022/07/04 02:13:01;;;;;;;4.05;1.00;;;;;;;14.90;73.68;101040.56;5107054;28;20112;-71
2022/07/04 02:16:04;;;;;;;7.07;1.30;;;;;;;14.97;73.72;101033.13;5108188;28;20085;-71
2022/07/04 02:19:07;;;;;;;4.07;1.15;;;;;;;15.18;73.09;101046.69;5106626;28;20105;-71
2022/07/04 02:22:11;;;;;;;3.97;0.90;;;;;;;15.09;73.63;101038.47;5108516;28;20570;-71
2022/07/04 02:25:14;;;;;;;5.63;1.20;;;;;;;14.85;74.42;101046.09;5107711;28;20069;-71
2022/07/04 02:28:18;;;;;;;4.07;1.30;;;;;;;14.60;75.50;101045.91;5107218;28;20112;-71
2022/07/04 02:31:21;;;;;;;6.28;1.48;;;;;;;14.69;74.80;101055.03;5106659;28;20100;-71
2022/07/04 02:34:25;;;;;;;6.40;1.33;;;;;;;14.48;75.81;101052.72;5105091;28;20428;-70
2022/07/04 02:37:28;;;;;;;2.75;0.90;;;;;;;14.44;76.06;101045.94;5106455;28;20547;-71
2022/07/04 02:40:31;;;;;;;3.30;0.93;;;;;;;14.50;75.76;101044.72;5108094;28;20103;-71
2022/07/04 02:43:35;;;;;;;4.10;1.33;;;;;;;14.53;75.77;101050.69;5107207;28;20557;-70
2022/07/04 02:46:38;;;;;;;3.00;1.10;;;;;;;14.51;75.53;101060.44;5107281;28;20421;-71
2022/07/04 02:49:42;;;;;;;4.25;1.13;;;;;;;14.35;75.90;101065.75;5106155;28;20047;-71
2022/07/04 02:52:45;;;;;;;2.85;0.90;;;;;;;14.23;76.32;101066.50;5106022;28;20050;-71
2022/07/04 02:55:50;;;;;;;2.88;1.00;;;;;;;14.23;76.19;101063.88;5108364;28;20065;-71
2022/07/04 02:58:54;;;;;;;4.68;1.88;;;;;;;14.29;75.65;101063.47;5107647;28;20080;-71
2022/07/04 03:01:57;;;;;;;3.75;1.30;;;;;;;14.52;74.29;101072.69;5106512;28;20050;-71
2022/07/04 03:05:01;;;;;;;4.68;1.20;;;;;;;14.17;75.58;101083.47;5105626;28;20067;-70
2022/07/04 03:08:05;;;;;;;3.42;1.10;;;;;;;14.22;75.65;101075.31;5105946;28;20092;-71
2022/07/04 03:11:09;;;;;;;4.70;1.20;;;;;;;14.24;75.55;101080.50;5105779;28;20096;-71
2022/07/04 03:14:11;;;;;;;4.22;1.20;;;;;;;14.07;76.28;101082.31;5108227;28;20043;-71
2022/07/04 03:17:18;;;;;;;3.03;1.08;;;;;;;14.08;76.07;101075.28;5107184;28;20112;-71
2022/07/04 03:20:26;;;;;;;4.45;1.70;;;;;;;14.01;76.33;101076.53;5107635;28;20070;-71
2022/07/04 03:23:33;;;;;;;7.03;1.35;;;;;;;14.03;76.35;101083.41;5107013;28;20108;-71
2022/07/04 03:26:36;;;;;;;1.88;0.73;;;;;;;14.04;76.34;101085.13;5107156;28;20046;-71
2022/07/04 03:29:41;;;;;;;1.98;0.70;;;;;;;13.88;76.79;101081.66;5106378;28;20076;-71
2022/07/04 03:32:44;;;;;;;2.20;1.00;;;;;;;13.87;76.41;101085.25;5103909;28;20039;-71
2022/07/04 03:35:48;;;;;;;11.82;1.38;;;;;;;13.82;76.79;101082.03;5099645;28;20050;-71
2022/07/04 03:38:51;;;;;;;2.58;0.80;;;;;;;13.83;76.90;101086.34;5105569;28;20080;-71
2022/07/04 03:41:54;;;;;;;4.50;0.93;;;;;;;14.19;75.92;101086.84;5086597;28;20125;-71
2022/07/04 03:44:59;;;;;;;2.58;1.13;;;;;;;13.87;76.38;101079.97;5088297;28;20062;-71
2022/07/04 03:48:04;;;;;;;3.60;1.25;;;;;;;13.96;75.90;101080.28;5078550;28;20051;-71
2022/07/04 03:51:07;;;;;;;2.78;1.10;;;;;;;14.30;74.15;101080.97;5090699;28;20135;-71
2022/07/04 03:54:11;;;;;;;2.72;0.90;;;;;;;14.15;75.28;101084.50;5109903;28;20045;-72
2022/07/04 03:57:14;;;;;;;2.38;0.80;;;;;;;14.52;74.29;101085.84;5109352;28;20046;-72
2022/07/04 04:00:18;;;;;;;5.10;1.90;;;;;;;14.39;74.01;101090.13;5110082;28;20062;-70
2022/07/04 04:06:43;;;;;;;4.63;1.00;;;;;;;14.21;74.18;101099.09;5110124;28;20051;-71
2022/07/04 04:09:46;;;;;;;3.35;1.20;;;;;;;13.99;75.63;101102.09;5110983;28;20100;-72
2022/07/04 04:12:50;;;;;;;7.25;1.67;;;;;;;13.85;76.58;101105.53;5109538;28;20467;-70
2022/07/04 04:15:53;;;;;;;2.72;0.90;;;;;;;13.88;76.30;101105.31;5091124;28;20794;-69
2022/07/04 04:18:57;;;;;;;3.88;1.00;;;;;;;13.99;76.05;101110.84;5089530;28;20058;-71
2022/07/04 04:22:00;;;;;;;5.40;0.95;;;;;;;13.89;76.30;101109.66;5095922;28;20054;-71
2022/07/04 04:25:04;;;;;;;5.22;1.10;;;;;;;13.94;76.20;101107.59;5108695;28;20507;-71
2022/07/04 04:28:07;;;;;;;5.38;1.02;;;;;;;14.04;76.12;101116.69;5108850;28;20050;-66
2022/07/04 04:31:11;;;;;;;3.22;1.27;;;;;;;13.97;76.44;101117.94;5111554;28;20058;-76
2022/07/04 04:34:14;;;;;;;3.40;1.02;;;;;;;13.90;76.78;101117.44;5109585;28;20273;-72
2022/07/04 04:37:18;;;;;;;3.20;1.25;;;;;;;14.09;75.32;101119.88;5108483;28;20050;-69
2022/07/04 04:40:21;;;;;;;3.70;1.20;;;;;;;13.91;76.14;101121.78;5109974;28;20077;-73
2022/07/04 04:43:26;;;;;;;7.90;1.13;;;;;;;13.84;76.24;101124.84;5107096;28;20050;-73
2022/07/04 04:46:29;;;;;;;2.53;0.80;;;;;;;14.21;74.83;101122.75;5109782;28;20082;-74
2022/07/04 04:49:32;;;;;;;6.38;1.35;;;;;;;14.18;74.36;101129.88;5109315;28;20112;-78
2022/07/04 04:52:38;;;;;;;3.35;1.20;;;;;;;14.22;74.49;101134.97;5109542;28;20050;-79
2022/07/04 04:55:41;;;;;;;3.17;1.02;;;;;;;14.28;74.34;101132.81;5095960;28;20066;-79
2022/07/04 04:58:45;;;;;;;4.97;1.50;;;;;;;14.13;75.33;101136.31;5109151;28;20082;-79
2022/07/04 05:02:29;;;;;;;3.00;1.20;;;;;;;14.23;75.71;101142.78;5109959;28;20070;-80
2022/07/04 05:05:34;;;;;;;2.03;1.00;;;;;;;14.62;74.36;101134.34;5094854;28;20475;-79
2022/07/04 05:08:38;;;;;;;4.93;1.15;;;;;;;14.68;74.43;101143.69;5103824;28;20619;-80
2022/07/04 05:11:42;;;;;;;2.67;1.00;;;;;;;14.92;73.28;101133.44;5109985;28;20093;-80
2022/07/04 05:14:45;;;;;;;3.35;1.10;;;;;;;14.98;73.12;101143.59;5111528;28;20043;-79
2022/07/04 05:17:48;;;;;;;3.15;0.93;;;;;;;15.10;72.83;101140.22;5109628;28;20066;-79
2022/07/04 05:20:52;;;;;;;2.88;1.00;;;;;;;15.13;72.99;101144.47;5109945;28;20042;-79
2022/07/04 05:23:55;;;;;;;5.47;1.10;;;;;;;15.08;73.27;101146.53;5109442;28;20042;-79
2022/07/04 05:26:58;;;;;;;1.98;0.80;;;;;;;15.18;72.97;101141.53;5109807;28;20121;-80
2022/07/04 05:30:02;;;;;;;2.97;0.88;;;;;;;15.27;72.84;101148.88;5110945;28;20051;-79
2022/07/04 05:33:07;;;;;;;2.88;1.10;;;;;;;15.06;73.80;101153.66;5110059;28;20043;-78
2022/07/04 05:36:11;;;;;;;4.72;0.93;;;;;;;15.33;73.22;101156.41;5111224;28;20192;-78
2022/07/04 05:39:15;;;;;;;4.38;1.10;;;;;;;15.39;73.02;101156.03;5110174;28;20077;-79
2022/07/04 05:42:20;;;;;;;3.30;0.90;;;;;;;15.39;73.20;101153.38;5109288;28;20607;-79
2022/07/04 05:45:24;;;;;;;3.90;1.10;;;;;;;15.41;73.25;101151.50;5109149;28;20086;-79
2022/07/04 05:48:28;;;;;;;3.63;1.13;;;;;;;15.62;72.81;101144.03;5088970;28;20491;-78
2022/07/04 05:51:32;;;;;;;3.47;0.80;;;;;;;15.68;72.84;101148.09;5088994;28;20116;-79
2022/07/04 05:54:36;;;;;;;5.35;2.05;;;;;;;15.88;71.99;101144.19;5100617;28;20511;-79
2022/07/04 05:57:40;;;;;;;3.97;1.10;;;;;;;15.95;72.09;101148.97;5089600;28;20127;-78
2022/07/04 06:00:43;;;;;;;2.92;0.90;;;;;;;15.88;73.11;101147.66;5087812;28;20039;-76
2022/07/04 06:03:47;;;;;;;6.40;0.90;;;;;;;15.92;73.43;101143.91;5088684;28;20069;-78
2022/07/04 06:06:50;;;;;;;2.65;1.10;;;;;;;15.90;73.57;101143.13;5088433;28;20092;-79
2022/07/04 06:09:55;;;;;;;2.78;0.93;;;;;;;16.17;72.68;101131.72;5095795;28;20055;-79
2022/07/04 06:13:09;;;;;;;2.63;0.90;;;;;;;16.19;73.22;101135.94;5088216;28;20074;-80
2022/07/04 06:16:13;;;;;;;4.50;1.00;;;;;;;16.41;72.20;101129.25;5089769;28;20051;-79
2022/07/04 06:19:19;;;;;;;3.55;1.10;;;;;;;16.58;71.57;101138.66;5088608;28;20106;-81
2022/07/04 06:22:23;;;;;;;4.07;0.90;;;;;;;16.72;70.63;101128.03;5092910;28;20066;-77
2022/07/04 06:25:26;;;;;;;5.28;1.10;;;;;;;16.87;69.50;101126.16;5107045;28;20086;-78
2022/07/04 06:28:30;;;;;;;3.30;1.15;;;;;;;16.98;68.01;101125.41;5107472;28;20555;-78
2022/07/04 06:31:35;;;;;;;7.80;0.90;;;;;;;17.09;66.56;101121.06;5106008;28;20092;-79
2022/07/04 06:38:01;;;;;;;3.50;0.95;;;;;;;17.44;64.07;101118.56;5103378;28;20407;-79
2022/07/04 06:41:04;;;;;;;5.22;1.00;;;;;;;17.55;62.75;101120.44;5108274;28;20610;-79
2022/07/04 06:44:09;;;;;;;4.47;0.77;;;;;;;17.62;62.05;101116.41;5108634;28;20409;-79
2022/07/04 06:47:12;;;;;;;4.53;0.80;;;;;;;17.66;61.67;101109.91;5108581;28;20508;-79
2022/07/04 06:50:17;;;;;;;4.25;1.10;;;;;;;17.63;61.25;101102.22;5109432;28;20045;-78
2022/07/04 06:53:22;;;;;;;3.70;1.08;;;;;;;17.80;60.64;101110.72;5108154;28;20400;-78
2022/07/04 06:56:25;;;;;;;2.92;0.75;;;;;;;17.95;60.31;101108.78;5108976;28;20112;-82
2022/07/04 06:59:29;;;;;;;3.97;1.05;;;;;;;17.96;59.81;101113.09;5105897;28;20362;-80
2022/07/04 07:02:36;;;;;;;5.72;0.85;;;;;;;18.08;59.37;101104.25;5087271;28;20043;-81
2022/07/04 07:05:40;;;;;;;3.25;1.02;;;;;;;18.17;59.49;101108.88;5095198;28;20405;-85
2022/07/04 07:08:44;;;;;;;4.55;1.40;;;;;;;18.24;59.12;101109.25;5108053;28;20527;-82
2022/07/04 07:11:48;;;;;;;2.83;0.77;;;;;;;18.27;58.06;101104.56;5107499;28;20039;-80
2022/07/04 07:14:53;;;;;;;4.47;0.90;;;;;;;18.23;58.13;101103.13;5108956;28;20069;-79
2022/07/04 07:17:57;;;;;;;2.95;0.95;;;;;;;18.31;57.99;101100.75;5108819;28;20074;-79
2022/07/04 07:21:01;;;;;;;3.42;0.88;;;;;;;18.32;57.47;101097.13;5107066;28;20057;-77
2022/07/04 07:24:05;;;;;;;2.05;0.63;;;;;;;18.42;56.28;101101.72;5107596;28;20038;-79
2022/07/04 07:27:09;;;;;;;2.28;0.60;;;;;;;18.49;57.42;101089.69;5107517;28;20043;-78
2022/07/04 07:30:12;;;;;;;3.25;0.65;;;;;;;18.52;57.81;101095.59;5107916;28;20104;-82
2022/07/04 07:33:15;;;;;;;3.30;0.77;;;;;;;18.65;56.61;101094.66;5108431;28;20511;-82
2022/07/04 07:36:19;;;;;;;3.67;0.85;;;;;;;18.66;55.45;101093.69;5088321;28;20047;-82
2022/07/04 07:39:23;;;;;;;3.42;0.82;;;;;;;18.79;57.01;101090.03;5087003;28;20423;-82
2022/07/04 07:42:26;;;;;;;4.65;0.75;;;;;;;18.81;54.36;101085.44;5087418;28;20520;-83
2022/07/04 07:45:29;;;;;;;5.28;0.95;;;;;;;18.85;54.01;101088.69;5086959;28;20051;-81
2022/07/04 07:48:33;;;;;;;3.50;0.73;;;;;;;18.87;54.70;101085.94;5094885;28;20042;-71
2022/07/04 07:51:37;;;;;;;4.55;1.15;;;;;;;18.94;53.57;101084.47;5107535;28;20125;-70
2022/07/04 07:54:40;;;;;;;4.82;0.70;;;;;;;19.01;52.00;101085.66;5108152;28;20079;-71
2022/07/04 07:57:43;;;;;;;3.47;0.50;;;;;;;19.00;48.75;101084.00;5107629;28;20109;-72
2022/07/04 08:00:47;;;;;;;2.95;0.43;;;;;;;19.17;47.98;101080.84;5107476;28;20166;-70
2022/07/04 08:07:12;;;;;;;7.38;1.25;;;;;;;19.07;47.09;101077.25;5108360;28;20148;-72
2022/07/04 08:10:16;;;;;;;2.40;0.47;;;;;;;19.08;46.74;101072.78;5107240;28;20089;-85
2022/07/04 08:13:20;;;;;;;3.63;0.60;;;;;;;19.23;47.09;101060.94;5098261;28;20042;-87
2022/07/04 08:16:25;;;;;;;1.85;0.40;;;;;;;19.05;46.30;101064.13;5106325;28;20081;-87
2022/07/04 08:19:28;;;;;;;3.53;0.60;;;;;;;19.10;45.97;101061.09;5107687;28;20054;-86
2022/07/04 08:22:35;;;;;;;2.83;0.57;;;;;;;19.21;45.20;101058.44;5108395;28;20102;-83
2022/07/04 08:25:38;;;;;;;2.28;0.50;;;;;;;19.22;45.20;101044.22;5107800;28;20474;-86
2022/07/04 08:28:43;;;;;;;2.20;0.32;;;;;;;19.22;44.84;101040.72;5108035;28;20054;-73
2022/07/04 08:31:47;;;;;;;2.00;0.40;;;;;;;19.29;44.77;101039.25;5109121;28;20082;-85
2022/07/04 08:34:52;;;;;;;2.92;0.47;;;;;;;19.38;43.95;101046.47;5111057;28;20100;-84
2022/07/04 08:37:55;;;;;;;2.42;0.50;;;;;;;19.49;44.43;101041.13;5110958;28;20046;-79
2022/07/04 08:41:02;;;;;;;3.13;0.47;;;;;;;19.63;44.43;101032.03;5111035;28;20523;-85
2022/07/04 08:44:12;;;;;;;2.92;0.50;;;;;;;19.95;46.01;101037.38;5111917;28;20042;-83
2022/07/04 08:47:19;;;;;;;5.57;0.50;;;;;;;19.59;44.80;101040.38;5110248;28;20043;-83
2022/07/04 08:50:44;;;;;;;4.45;0.50;;;;;;;19.75;46.32;101035.53;5111162;28;20110;-82
2022/07/04 08:53:57;;;;;;;2.67;0.60;;;;;;;19.89;44.40;101026.41;5110618;28;20050;-75
2022/07/04 09:00:24;;;;;;;1.90;0.50;;;;;;;20.09;43.16;101028.22;5109675;28;20051;-76
2022/07/04 09:03:29;;;;;;;2.58;0.40;;;;;;;20.24;43.04;101012.00;5111089;28;20074;-76
2022/07/04 09:06:33;;;;;;;2.80;0.43;;;;;;;20.23;42.58;101019.13;5111011;28;20123;-77
2022/07/04 09:09:38;;;;;;;2.60;0.50;;;;;;;20.21;42.86;101013.91;5111054;28;20046;-77
2022/07/04 09:12:45;;;;;;;4.13;0.43;;;;;;;20.41;43.53;101000.75;5110685;28;20112;-78
2022/07/04 09:15:50;;;;;;;2.78;0.50;;;;;;;20.53;43.96;101013.00;5109369;28;20043;-78
2022/07/04 09:18:55;;;;;;;3.50;0.40;;;;;;;20.61;43.77;101018.50;5109764;28;20120;-77
2022/07/04 09:22:05;;;;;;;3.55;0.50;;;;;;;20.44;43.03;101021.72;5109046;28;20093;-77
2022/07/04 09:25:17;;;;;;;3.20;0.60;;;;;;;20.30;42.52;101011.47;5109741;28;20524;-77
2022/07/04 09:28:28;;;;;;;2.78;0.40;;;;;;;20.35;43.24;101002.09;5108952;28;20046;-79
2022/07/04 09:31:39;;;;;;;3.03;0.40;;;;;;;20.78;43.03;101006.41;5108340;28;20066;-79
2022/07/04 09:34:56;;;;;;;3.60;1.20;;;;;;;20.66;42.58;100999.50;5077821;28;20291;-77
2022/07/04 09:38:05;;;;;;;2.83;0.50;;;;;;;20.97;42.38;100997.66;5090172;28;21256;-78
2022/07/04 09:41:29;;;;;;;1.25;0.30;;;;;;;21.21;42.31;100993.75;5089814;28;20054;-78
2022/07/04 09:44:46;;;;;;;4.40;0.82;;;;;;;21.53;41.48;101007.69;5088891;28;20422;-77
2022/07/04 09:47:57;;;;;;;1.83;0.43;;;;;;;21.27;40.14;100998.53;5089564;28;20452;-77
2022/07/04 09:51:03;;;;;;;7.10;0.47;;;;;;;21.00;40.19;101005.34;5088590;28;20129;-76
2022/07/04 09:54:34;;;;;;;5.60;0.47;;;;;;;20.77;37.98;101014.50;5089037;28;20460;-75
2022/07/04 09:57:39;;;;;;;3.05;0.50;;;;;;;20.97;39.55;101000.31;5097723;28;20096;-81
2022/07/04 10:00:47;;;;;;;1.27;0.30;;;;;;;21.08;38.65;100999.34;5108923;28;20112;-76
2022/07/04 10:03:53;;;;;;;2.13;0.45;;;;;;;21.20;37.63;100994.75;5109395;28;20039;-74
2022/07/04 10:06:57;;;;;;;1.45;0.25;;;;;;;21.12;36.13;100985.66;5109425;28;20675;-77
2022/07/04 10:10:34;;;;;;;1.60;0.30;;;;;;;21.08;36.65;100973.59;5110146;28;20070;-78
2022/07/04 10:13:39;;;;;;;2.30;0.40;;;;;;;21.18;37.62;100972.75;5088271;28;20097;-77
2022/07/04 10:16:43;;;;;;;2.28;0.60;;;;;;;21.40;38.34;100967.22;5092196;28;20120;-77
2022/07/04 10:19:51;;;;;;;1.85;0.47;;;;;;;21.61;37.19;100968.91;5107752;28;20574;-76
2022/07/04 10:22:55;;;;;;;2.13;0.50;;;;;;;21.39;37.87;100968.22;5109137;28;20450;-76
2022/07/04 10:26:02;;;;;;;2.45;0.50;;;;;;;21.67;37.72;100974.50;5107973;28;20096;-76
2022/07/04 10:29:12;;;;;;;4.28;0.30;;;;;;;21.63;38.07;100966.94;5108065;28;20046;-75
2022/07/04 10:32:17;;;;;;;2.10;0.40;;;;;;;21.47;38.69;100973.66;5108633;28;20109;-76
2022/07/04 10:35:53;;;;;;;3.75;0.40;;;;;;;21.56;39.56;100986.13;5108322;28;20039;-75
2022/07/04 10:39:03;;;;;;;2.22;0.50;;;;;;;21.58;38.89;100970.03;5100810;28;20051;-76
2022/07/04 10:42:07;;;;;;;2.50;0.60;;;;;;;21.74;39.87;100988.91;5088745;28;20043;-75
2022/07/04 10:45:33;;;;;;;4.68;0.95;;;;;;;21.92;40.33;100983.72;5088594;28;20177;-75
2022/07/04 10:49:28;;;;;;;4.80;0.85;;;;;;;22.21;40.71;100974.88;5087985;28;20100;-77
2022/07/04 10:52:34;;;;;;;3.28;0.60;;;;;;;22.20;40.06;100971.34;5088831;28;20258;-75
2022/07/04 10:55:37;;;;;;;3.10;0.90;;;;;;;22.25;40.88;100979.75;5104479;28;20059;-77
2022/07/04 10:58:42;;;;;;;2.53;0.50;;;;;;;22.21;40.81;100969.53;5108396;28;20055;-77
2022/07/04 11:02:18;;;;;;;2.63;0.57;;;;;;;22.26;39.78;100975.25;5108370;28;20042;-76
2022/07/04 11:05:35;;;;;;;2.53;0.50;;;;;;;22.21;39.73;100980.19;5107759;28;20123;-77
2022/07/04 11:09:12;;;;;;;2.17;0.63;;;;;;;22.48;40.69;100984.72;5107005;28;20100;-75
2022/07/04 11:12:16;;;;;;;3.20;0.75;;;;;;;22.50;39.89;100988.91;5108092;28;20076;-74
2022/07/04 11:15:32;;;;;;;2.65;0.35;;;;;;;22.27;40.20;100982.25;5108693;28;20058;-74
2022/07/04 11:19:28;;;;;;;2.63;0.60;;;;;;;22.50;40.28;100988.91;5107887;28;20197;-73
2022/07/04 11:22:31;;;;;;;2.28;0.40;;;;;;;22.47;39.76;100983.06;5106132;28;20096;-73
2022/07/04 11:25:35;;;;;;;5.60;0.55;;;;;;;22.16;39.43;100985.09;5109174;28;20062;-74
2022/07/04 11:28:39;;;;;;;1.17;0.38;;;;;;;21.94;40.43;100980.91;5108593;28;20137;-73
2022/07/04 11:31:45;;;;;;;1.38;0.40;;;;;;;22.13;41.26;100980.03;5107996;28;20561;-73
2022/07/04 11:34:48;;;;;;;1.50;0.40;;;;;;;22.19;40.61;100964.34;5108380;28;20113;-73
2022/07/04 11:37:57;;;;;;;2.45;0.50;;;;;;;22.27;40.90;100969.81;5106089;28;20047;-73
2022/07/04 11:47:54;;;;;;;2.95;0.50;;;;;;;22.46;39.71;100955.56;5108310;28;20551;-74
2022/07/04 11:50:57;;;;;;;5.75;0.63;;;;;;;22.37;39.14;100956.44;5106971;28;20060;-74
2022/07/04 11:54:04;;;;;;;3.60;0.95;;;;;;;22.69;40.59;100963.19;5108224;28;20054;-76
2022/07/04 11:57:20;;;;;;;2.08;0.50;;;;;;;22.66;39.26;100960.81;5108483;28;20088;-74
2022/07/04 12:00:31;;;;;;;3.47;0.35;;;;;;;23.06;39.04;100967.59;5107525;28;20063;-77
2022/07/04 12:03:34;;;;;;;2.78;0.50;;;;;;;23.15;39.12;100958.72;5107458;28;20092;-76
2022/07/04 12:06:38;;;;;;;1.92;0.40;;;;;;;23.40;38.95;100965.97;5108866;28;20041;-72
2022/07/04 12:09:44;;;;;;;3.95;0.57;;;;;;;23.18;38.57;100956.56;5111891;28;20038;-80
2022/07/04 12:13:08;;;;;;;3.40;0.52;;;;;;;23.32;38.56;100957.84;5108949;28;20100;-73
2022/07/04 12:16:12;;;;;;;1.67;0.40;;;;;;;23.27;37.10;100956.66;5091084;28;20047;-75
2022/07/04 12:19:15;;;;;;;2.00;0.40;;;;;;;23.33;37.35;100943.53;5091508;28;20144;-71
2022/07/04 12:22:38;;;;;;;3.95;1.20;;;;;;;23.73;37.92;100952.06;5091528;28;20093;-73
2022/07/04 12:25:45;;;;;;;1.08;0.35;;;;;;;23.74;36.44;100949.25;5090860;28;20125;-72
2022/07/04 12:28:48;;;;;;;2.80;0.68;;;;;;;23.73;37.22;100944.91;5103245;28;20104;-70
2022/07/04 12:31:53;;;;;;;1.35;0.40;;;;;;;23.54;37.06;100942.38;5110782;28;20045;-71
2022/07/04 12:34:58;;;;;;;1.85;0.40;;;;;;;23.66;36.51;100939.31;5110267;28;20192;-71
2022/07/04 12:38:27;;;;;;;5.03;0.52;;;;;;;24.03;37.86;100934.78;5111308;28;20554;-70
2022/07/04 12:41:32;;;;;;;1.65;0.50;;;;;;;24.22;35.82;100923.84;5111534;28;20266;-71
2022/07/04 12:44:37;;;;;;;2.25;0.65;;;;;;;24.07;36.77;100920.09;5110218;28;20135;-72
2022/07/04 12:47:49;;;;;;;3.50;0.30;;;;;;;23.41;34.96;100929.44;5109889;28;20039;-70
2022/07/04 12:51:24;;;;;;;2.03;0.30;;;;;;;23.86;34.80;100923.97;5091297;28;20113;-70
2022/07/04 12:54:29;;;;;;;2.42;0.50;;;;;;;23.73;33.63;100922.69;5094257;28;20569;-69
2022/07/04 12:57:33;;;;;;;2.53;0.65;;;;;;;24.24;33.79;100911.16;5091016;28;20079;-70
2022/07/04 13:00:38;;;;;;;2.05;0.40;;;;;;;24.65;32.91;100914.03;5090616;28;20082;-71
2022/07/04 13:03:42;;;;;;;4.05;0.43;;;;;;;24.75;33.79;100901.34;5102169;28;20047;-70
2022/07/04 13:06:46;;;;;;;1.60;0.30;;;;;;;24.85;32.08;100909.22;5111349;28;20516;-69
2022/07/04 13:09:50;;;;;;;2.63;0.47;;;;;;;25.06;31.44;100906.09;5109950;28;20237;-69
2022/07/04 13:12:54;;;;;;;1.95;0.55;;;;;;;25.64;30.55;100910.47;5110078;28;20047;-69
2022/07/04 13:16:04;;;;;;;2.22;0.40;;;;;;;25.96;31.35;100914.13;5108821;28;20149;-70
2022/07/04 13:19:08;;;;;;;1.88;0.40;;;;;;;25.68;30.33;100914.47;5068710;28;20051;-70
2022/07/04 13:22:12;;;;;;;1.45;0.25;;;;;;;25.38;30.67;100905.31;5049581;28;20107;-71
2022/07/04 13:25:16;;;;;;;2.13;0.40;;;;;;;25.35;30.63;100905.63;5049645;28;20048;-69
2022/07/04 13:28:19;;;;;;;1.77;0.28;;;;;;;25.01;31.56;100903.06;5050387;28;20102;-68
2022/07/04 13:31:23;;;;;;;1.45;0.40;;;;;;;25.42;29.47;100903.97;5054548;28;20046;-68
2022/07/04 13:34:26;;;;;;;1.60;0.30;;;;;;;25.52;30.00;100898.44;5070261;28;20056;-67
2022/07/04 13:37:29;;;;;;;3.47;0.60;;;;;;;25.56;29.10;100893.56;5070306;28;20581;-68
2022/07/04 13:40:33;;;;;;;2.70;0.40;;;;;;;25.70;28.69;100898.25;5070283;28;20050;-67
2022/07/04 13:43:38;;;;;;;1.80;0.43;;;;;;;25.51;27.91;100886.06;5070168;28;20039;-68
2022/07/04 13:46:42;;;;;;;2.15;0.43;;;;;;;26.54;26.36;100880.75;5069899;28;20070;-67
2022/07/04 13:49:46;;;;;;;2.78;0.40;;;;;;;27.53;27.12;100876.38;5071077;28;20040;-67
2022/07/04 13:52:50;;;;;;;2.83;0.20;;;;;;;27.01;26.78;100882.50;5070365;28;20165;-67
2022/07/04 13:55:55;;;;;;;1.90;0.50;;;;;;;26.69;26.65;100891.59;5069717;28;20047;-68
2022/07/04 13:59:00;;;;;;;2.42;0.30;;;;;;;26.95;26.33;100888.56;5069108;28;20046;-69
2022/07/04 14:02:03;;;;;;;4.00;0.47;;;;;;;27.09;26.24;100877.06;5049158;28;20123;-69
2022/07/04 14:05:07;;;;;;;3.15;0.40;;;;;;;28.22;24.83;100873.47;5049077;28;20923;-76
2022/07/04 14:08:43;;;;;;;4.75;1.20;;;;;;;29.41;24.15;100855.06;5049022;28;20083;-76
2022/07/04 14:11:47;;;;;;;2.85;0.60;;;;;;;30.42;22.75;100853.81;5049225;28;20040;-77
2022/07/04 14:14:50;;;;;;;5.50;0.70;;;;;;;30.84;22.78;100849.16;5057435;28;20075;-69
2022/07/04 14:17:54;;;;;;;2.75;0.50;;;;;;;29.42;22.98;100850.53;5090397;28;20104;-73
2022/07/04 14:21:11;;;;;;;3.53;0.50;;;;;;;32.25;20.94;100846.91;5108790;28;20147;-76
2022/07/04 14:24:16;;;;;;;3.58;0.65;;;;;;;31.77;21.75;100849.13;5109392;28;20046;-76
2022/07/04 14:27:22;;;;;;;2.05;0.70;;;;;;;35.03;17.71;100837.06;5108647;28;20050;-77
2022/07/04 14:30:26;;;;;;;2.50;0.60;;;;;;;31.46;20.18;100847.94;5109602;28;20034;-77
2022/07/04 14:33:35;;;;;;;2.63;0.70;;;;;;;32.64;20.06;100839.66;4735171;27;10000209;-83
2022/07/04 14:36:40;;;;;;;2.80;0.65;;;;;;;33.76;19.98;100839.78;5087221;28;20517;-80
2022/07/04 14:39:45;;;;;;;1.38;0.50;;;;;;;36.57;16.36;100824.91;5087735;28;20136;-75
2022/07/04 14:42:48;;;;;;;5.30;0.70;;;;;;;36.73;16.96;100812.38;5091396;28;20458;-73
2022/07/04 14:45:51;;;;;;;2.20;0.70;;;;;;;35.80;17.40;100820.66;5109076;28;20078;-74
2022/07/04 14:49:00;;;;;;;3.70;0.80;;;;;;;38.14;14.68;100820.16;5108980;28;20039;-76